createdAt,value
2022-12-01T00:01:09.734Z,5.67
2022-12-01T00:03:37.176Z,5.00
2022-12-01T00:06:05.836Z,5.00
2022-12-01T00:08:33.460Z,4.00
2022-12-01T00:11:04.839Z,1.00
2022-12-01T00:13:32.336Z,8.00
2022-12-01T00:16:09.037Z,7.33
2022-12-01T00:18:35.950Z,5.00
2022-12-01T00:21:02.816Z,6.00
2022-12-01T00:23:29.709Z,5.00
2022-12-01T00:26:03.058Z,4.33
2022-12-01T00:28:29.965Z,5.00
2022-12-01T00:30:56.834Z,6.00
2022-12-01T00:33:23.814Z,5.00
2022-12-01T00:35:50.711Z,2.00
2022-12-01T00:38:17.621Z,3.50
2022-12-01T00:40:44.554Z,6.00
2022-12-01T00:43:11.483Z,8.00
2022-12-01T00:45:38.386Z,8.67
2022-12-01T00:48:05.369Z,8.00
2022-12-01T00:50:32.277Z,8.00
2022-12-01T00:52:59.245Z,5.67
2022-12-01T00:55:26.408Z,6.00
2022-12-01T00:57:53.335Z,6.00
2022-12-01T01:00:20.605Z,5.00
2022-12-01T01:02:47.677Z,2.00
2022-12-01T01:05:14.670Z,4.75
2022-12-01T01:07:41.605Z,4.67
2022-12-01T01:10:08.862Z,6.00
2022-12-01T01:12:35.844Z,6.00
2022-12-01T01:15:03.051Z,6.00
2022-12-01T01:17:29.969Z,9.00
2022-12-01T01:19:56.857Z,7.25
2022-12-01T01:22:23.744Z,8.00
2022-12-01T01:24:50.679Z,9.00
2022-12-01T01:27:17.876Z,8.00
2022-12-01T01:29:44.803Z,7.50
2022-12-01T01:32:11.717Z,5.50
2022-12-01T01:34:38.587Z,5.00
2022-12-01T01:37:05.457Z,4.00
2022-12-01T01:39:32.398Z,4.00
2022-12-01T01:41:59.270Z,1.00
2022-12-01T01:44:49.629Z,5.50
2022-12-01T01:47:33.475Z,8.00
2022-12-01T01:50:06.712Z,8.33
2022-12-01T01:52:42.550Z,7.33
2022-12-01T01:55:09.895Z,5.25
2022-12-01T01:57:38.050Z,5.75
2022-12-01T02:00:10.120Z,2.00
2022-12-01T02:02:45.410Z,4.25
2022-12-01T02:05:18.143Z,5.50
2022-12-01T02:08:02.839Z,8.67
2022-12-01T02:10:56.775Z,9.67
2022-12-01T02:13:55.923Z,12.00
2022-12-01T02:17:03.336Z,10.00
2022-12-01T02:20:20.334Z,8.00
2022-12-01T02:23:19.658Z,5.00
2022-12-01T02:26:41.235Z,6.00
2022-12-01T02:29:35.821Z,8.00
2022-12-01T02:32:30.324Z,8.67
2022-12-01T02:35:03.926Z,6.00
2022-12-01T02:37:59.899Z,8.00
2022-12-01T02:40:43.693Z,8.33
2022-12-01T02:43:27.644Z,9.67
2022-12-01T02:46:02.637Z,9.00
2022-12-01T02:48:43.234Z,10.67
2022-12-01T02:51:16.553Z,9.00
2022-12-01T02:53:43.855Z,8.00
2022-12-01T02:56:13.437Z,9.00
2022-12-01T02:58:40.573Z,8.00
2022-12-01T03:01:24.833Z,8.25
2022-12-01T03:03:59.129Z,7.33
2022-12-01T03:06:32.220Z,8.00
2022-12-01T03:09:17.203Z,5.67
2022-12-01T03:12:08.285Z,9.00
2022-12-01T03:15:25.468Z,6.00
2022-12-01T03:17:55.456Z,6.00
2022-12-01T03:20:37.677Z,4.00
2022-12-01T03:23:18.327Z,9.00
2022-12-01T03:25:48.925Z,9.00
2022-12-01T03:28:21.872Z,9.00
2022-12-01T03:30:53.039Z,8.67
2022-12-01T03:33:34.504Z,8.33
2022-12-01T03:36:07.372Z,9.00
2022-12-01T03:38:36.554Z,9.00
2022-12-01T03:41:15.097Z,10.00
2022-12-01T03:43:49.380Z,10.00
2022-12-01T03:46:25.669Z,8.00
2022-12-01T03:48:55.443Z,10.00
2022-12-01T03:51:48.494Z,11.33
2022-12-01T03:54:55.628Z,10.67
2022-12-01T03:57:58.622Z,10.00
2022-12-01T04:00:25.589Z,11.67
2022-12-01T04:02:57.671Z,10.33
2022-12-01T04:05:26.319Z,10.00
2022-12-01T04:07:54.133Z,6.50
2022-12-01T04:10:21.239Z,5.00
2022-12-01T04:12:48.309Z,5.25
2022-12-01T04:15:15.565Z,9.00
2022-12-01T04:17:44.499Z,8.50
2022-12-01T04:20:14.883Z,9.50
2022-12-01T04:22:42.144Z,7.33
2022-12-01T04:25:10.281Z,9.00
2022-12-01T04:27:38.000Z,8.33
2022-12-01T04:30:06.698Z,8.00
2022-12-01T04:32:40.856Z,10.00
2022-12-01T04:35:09.891Z,8.00
2022-12-01T04:37:37.524Z,6.00
2022-12-01T04:40:06.032Z,6.00
2022-12-01T04:42:33.115Z,8.67
2022-12-01T04:45:00.039Z,9.00
2022-12-01T04:47:26.939Z,8.33
2022-12-01T04:49:54.669Z,9.67
2022-12-01T04:52:21.588Z,7.50
2022-12-01T04:54:48.485Z,8.00
2022-12-01T04:57:17.075Z,8.67
2022-12-01T04:59:43.976Z,9.00
2022-12-01T05:02:10.974Z,8.00
2022-12-01T05:04:41.569Z,8.00
2022-12-01T05:07:08.804Z,5.25
2022-12-01T05:09:35.869Z,7.33
2022-12-01T05:12:02.888Z,5.75
2022-12-01T05:14:29.812Z,5.75
2022-12-01T05:16:58.350Z,7.50
2022-12-01T05:19:43.900Z,4.00
2022-12-01T05:22:10.764Z,5.25
2022-12-01T05:24:37.683Z,9.00
2022-12-01T05:27:04.708Z,8.00
2022-12-01T05:29:33.242Z,10.67
2022-12-01T05:32:00.347Z,10.00
2022-12-01T05:34:27.405Z,9.00
2022-12-01T05:36:54.352Z,9.33
2022-12-01T05:39:21.259Z,8.00
2022-12-01T05:41:48.136Z,7.33
2022-12-01T05:44:15.111Z,6.00
2022-12-01T05:46:42.002Z,6.50
2022-12-01T05:49:08.882Z,8.00
2022-12-01T05:51:35.802Z,9.00
2022-12-01T05:54:03.014Z,8.75
2022-12-01T05:56:29.948Z,8.00
2022-12-01T05:58:56.929Z,5.00
2022-12-01T06:01:23.987Z,6.00
2022-12-01T06:03:50.921Z,8.00
2022-12-01T06:06:17.894Z,8.00
2022-12-01T06:08:44.809Z,4.00
2022-12-01T06:11:11.832Z,6.00
2022-12-01T06:13:38.950Z,8.00
2022-12-01T06:16:06.824Z,5.50
2022-12-01T06:18:36.950Z,3.00
2022-12-01T06:21:05.966Z,5.00
2022-12-01T06:23:33.528Z,5.00
2022-12-01T06:26:00.437Z,6.00
2022-12-01T06:28:27.358Z,8.00
2022-12-01T06:30:59.326Z,9.00
2022-12-01T06:33:29.603Z,9.00
2022-12-01T06:36:01.530Z,2.00
2022-12-01T06:38:31.814Z,5.00
2022-12-01T06:40:58.695Z,9.00
2022-12-01T06:43:25.601Z,5.75
2022-12-01T06:45:57.820Z,9.00
2022-12-01T06:48:28.026Z,8.00
2022-12-01T06:50:58.519Z,6.50
2022-12-01T06:53:27.558Z,7.25
2022-12-01T06:55:55.382Z,5.75
2022-12-01T06:58:22.757Z,0.00
2022-12-01T07:00:52.223Z,5.25
2022-12-01T07:03:19.818Z,4.00
2022-12-01T07:06:01.266Z,4.50
2022-12-01T07:08:30.185Z,5.00
2022-12-01T07:11:08.364Z,5.00
2022-12-01T07:13:35.939Z,6.00
2022-12-01T07:16:03.584Z,7.25
2022-12-01T07:18:31.668Z,4.50
2022-12-01T07:21:03.105Z,6.00
2022-12-01T07:23:30.433Z,6.00
2022-12-01T07:26:05.013Z,8.00
2022-12-01T07:28:32.216Z,8.75
2022-12-01T07:31:04.196Z,2.00
2022-12-01T07:33:31.520Z,6.00
2022-12-01T07:35:58.782Z,0.25
2022-12-01T07:38:27.530Z,8.00
2022-12-01T07:40:54.498Z,8.50
2022-12-01T07:43:21.462Z,8.00
2022-12-01T07:45:48.377Z,7.50
2022-12-01T07:48:15.321Z,6.00
2022-12-01T07:50:42.198Z,6.00
2022-12-01T07:53:09.100Z,8.00
2022-12-01T07:55:37.281Z,8.00
2022-12-01T07:58:04.242Z,4.00
2022-12-01T08:00:31.138Z,10.33
2022-12-01T08:02:58.129Z,8.00
2022-12-01T08:05:25.035Z,8.67
2022-12-01T08:07:54.183Z,9.00
2022-12-01T08:10:21.042Z,8.00
2022-12-01T08:12:48.282Z,6.00
2022-12-01T08:15:15.239Z,9.00
2022-12-01T08:17:42.142Z,8.00
2022-12-01T08:20:09.290Z,8.00
2022-12-01T08:22:36.175Z,9.33
2022-12-01T08:25:03.120Z,8.33
2022-12-01T08:27:30.019Z,4.67
2022-12-01T08:29:56.914Z,8.33
2022-12-01T08:32:23.839Z,10.00
2022-12-01T08:34:53.587Z,10.00
2022-12-01T08:37:20.710Z,11.33
2022-12-01T08:39:47.866Z,10.00
2022-12-01T08:42:14.955Z,10.00
2022-12-01T08:44:41.856Z,9.00
2022-12-01T08:47:09.549Z,8.00
2022-12-01T08:49:37.045Z,9.00
2022-12-01T08:52:04.168Z,8.33
2022-12-01T08:54:31.107Z,8.00
2022-12-01T08:56:58.022Z,9.00
2022-12-01T08:59:24.961Z,8.00
2022-12-01T09:01:54.604Z,6.00
2022-12-01T09:04:26.160Z,5.00
2022-12-01T09:06:55.742Z,6.00
2022-12-01T09:09:25.692Z,5.00
2022-12-01T09:11:52.941Z,5.25
2022-12-01T09:14:21.410Z,5.25
2022-12-01T09:16:52.628Z,9.00
2022-12-01T09:19:24.713Z,6.50
2022-12-01T09:21:52.934Z,6.50
2022-12-01T09:24:19.876Z,7.00
2022-12-01T09:26:46.855Z,2.00
2022-12-01T09:29:15.742Z,8.50
2022-12-01T09:31:43.371Z,8.50
2022-12-01T09:34:20.340Z,7.50
2022-12-01T09:36:48.025Z,6.50
2022-12-01T09:39:19.019Z,8.00
2022-12-01T09:41:55.099Z,8.00
2022-12-01T09:44:41.087Z,8.75
2022-12-01T09:47:19.404Z,7.00
2022-12-01T09:49:46.443Z,8.00
2022-12-01T09:52:16.392Z,5.33
2022-12-01T09:54:43.326Z,6.00
2022-12-01T09:57:31.208Z,9.33
2022-12-01T10:00:00.158Z,8.75
2022-12-01T10:02:48.892Z,8.00
2022-12-01T10:05:21.307Z,12.33
2022-12-01T10:08:02.440Z,9.00
2022-12-01T10:10:36.721Z,9.00
2022-12-01T10:13:17.136Z,8.00
2022-12-01T10:15:52.226Z,6.00
2022-12-01T10:18:28.121Z,8.67
2022-12-01T10:21:05.628Z,10.00
2022-12-01T10:23:47.811Z,8.00
2022-12-01T10:26:26.433Z,8.00
2022-12-01T10:29:07.880Z,6.67
2022-12-01T10:31:45.700Z,6.67
2022-12-01T10:34:29.749Z,5.00
2022-12-01T10:36:58.267Z,8.00
2022-12-01T10:39:37.033Z,5.50
2022-12-01T10:42:34.835Z,8.00
2022-12-01T10:45:05.482Z,11.33
2022-12-01T10:47:32.945Z,5.00
2022-12-01T10:49:59.871Z,9.33
2022-12-01T10:52:38.586Z,8.00
2022-12-01T10:55:26.753Z,8.50
2022-12-01T10:58:00.845Z,8.00
2022-12-01T11:03:31.646Z,9.00
2022-12-01T11:06:01.665Z,10.00
2022-12-01T11:08:47.127Z,9.00
2022-12-01T11:11:36.464Z,10.00
2022-12-01T11:14:07.642Z,9.67
2022-12-01T11:16:43.781Z,9.00
2022-12-01T11:19:23.582Z,9.00
2022-12-01T11:21:56.448Z,10.00
2022-12-01T11:24:40.053Z,9.00
2022-12-01T11:27:19.364Z,8.75
2022-12-01T11:29:52.365Z,8.33
2022-12-01T11:32:21.553Z,8.00
2022-12-01T11:35:17.067Z,7.25
2022-12-01T11:38:20.986Z,6.67
2022-12-01T11:40:57.221Z,8.00
2022-12-01T11:43:30.738Z,6.50
2022-12-01T11:46:01.884Z,7.50
2022-12-01T11:48:31.622Z,9.00
2022-12-01T11:51:10.105Z,8.00
2022-12-01T11:53:40.111Z,6.00
2022-12-01T11:56:25.273Z,8.00
2022-12-01T11:58:57.476Z,8.00
2022-12-01T12:01:58.581Z,8.00
2022-12-01T12:04:55.984Z,8.00
2022-12-01T12:07:41.518Z,8.33
2022-12-01T12:10:35.437Z,10.00
2022-12-01T12:13:20.664Z,6.50
2022-12-01T12:16:19.842Z,8.00
2022-12-01T12:19:12.336Z,5.75
2022-12-01T12:22:05.253Z,6.00
2022-12-01T12:24:44.144Z,8.00
2022-12-01T12:27:13.780Z,5.67
2022-12-01T12:30:01.689Z,8.00
2022-12-01T12:32:47.144Z,8.00
2022-12-01T12:35:26.127Z,6.00
2022-12-01T12:38:11.338Z,10.00
2022-12-01T12:40:56.527Z,7.50
2022-12-01T12:43:40.129Z,7.33
2022-12-01T12:46:29.335Z,8.00
2022-12-01T12:49:26.265Z,6.00
2022-12-01T12:52:08.154Z,5.00
2022-12-01T12:54:57.665Z,5.00
2022-12-01T12:57:35.632Z,6.00
2022-12-01T13:00:08.901Z,6.00
2022-12-01T13:02:44.640Z,8.00
2022-12-01T13:05:17.630Z,9.00
2022-12-01T13:07:58.908Z,8.00
2022-12-01T13:11:10.612Z,9.00
2022-12-01T13:13:45.552Z,9.00
2022-12-01T13:16:17.619Z,8.00
2022-12-01T13:19:16.632Z,8.33
2022-12-01T13:21:47.150Z,7.33
2022-12-01T13:24:23.333Z,8.00
2022-12-01T13:26:59.446Z,6.00
2022-12-01T13:29:29.478Z,6.00
2022-12-01T13:31:56.520Z,6.00
2022-12-01T13:34:32.146Z,8.00
2022-12-01T13:36:59.358Z,5.00
2022-12-01T13:39:29.142Z,5.50
2022-12-01T13:42:19.347Z,9.00
2022-12-01T13:45:18.892Z,6.00
2022-12-01T13:47:54.603Z,6.00
2022-12-01T13:50:45.143Z,8.00
2022-12-01T13:53:23.164Z,7.33
2022-12-01T13:55:57.751Z,6.00
2022-12-01T13:58:41.265Z,8.00
2022-12-01T14:01:20.291Z,7.33
2022-12-01T14:04:03.848Z,8.00
2022-12-01T14:06:39.209Z,9.00
2022-12-01T14:09:21.179Z,8.00
2022-12-01T14:12:17.663Z,6.00
2022-12-01T14:15:20.837Z,8.00
2022-12-01T14:17:57.907Z,8.00
2022-12-01T14:20:25.152Z,7.33
2022-12-01T14:23:16.873Z,9.00
2022-12-01T14:26:10.112Z,8.00
2022-12-01T14:28:55.366Z,11.33
2022-12-01T14:31:23.915Z,12.00
2022-12-01T14:33:59.912Z,13.00
2022-12-01T14:36:32.713Z,8.00
2022-12-01T14:39:02.291Z,10.00
2022-12-01T14:41:33.955Z,12.00
2022-12-01T14:44:14.554Z,12.00
2022-12-01T14:46:49.279Z,10.67
2022-12-01T14:49:26.298Z,12.00
2022-12-01T14:52:05.157Z,10.00
2022-12-01T14:54:45.568Z,9.00
2022-12-01T14:57:17.262Z,8.67
2022-12-01T14:59:45.221Z,10.33
2022-12-01T15:02:12.917Z,11.00
2022-12-01T15:05:07.939Z,14.33
2022-12-01T15:07:40.355Z,16.33
2022-12-01T15:10:19.394Z,14.67
2022-12-01T15:12:47.465Z,16.33
2022-12-01T15:15:26.003Z,12.67
2022-12-01T15:17:55.705Z,12.67
2022-12-01T15:20:34.932Z,10.67
2022-12-01T15:23:08.939Z,9.00
2022-12-01T15:25:37.317Z,12.00
2022-12-01T15:28:16.843Z,12.67
2022-12-01T15:30:48.379Z,10.00
2022-12-01T15:33:28.421Z,8.67
2022-12-01T15:35:59.288Z,9.00
2022-12-01T15:38:30.127Z,10.00
2022-12-01T15:41:27.780Z,12.67
2022-12-01T15:44:05.711Z,12.00
2022-12-01T15:46:37.422Z,9.33
2022-12-01T15:49:48.635Z,9.67
2022-12-01T15:52:16.478Z,10.00
2022-12-01T15:54:48.917Z,9.00
2022-12-01T15:57:21.939Z,12.33
2022-12-01T15:59:57.145Z,12.67
2022-12-01T16:02:30.509Z,12.00
2022-12-01T16:05:27.779Z,8.00
2022-12-01T16:10:42.443Z,8.33
2022-12-01T16:13:35.711Z,9.67
2022-12-01T16:16:23.801Z,13.00
2022-12-01T16:18:57.184Z,10.00
2022-12-01T16:21:25.352Z,13.00
2022-12-01T16:24:04.945Z,9.00
2022-12-01T16:26:33.786Z,13.00
2022-12-01T16:29:00.880Z,9.00
2022-12-01T16:31:29.005Z,9.00
2022-12-01T16:34:18.467Z,11.00
2022-12-01T16:36:51.068Z,8.00
2022-12-01T16:39:18.398Z,12.00
2022-12-01T16:41:46.985Z,6.67
2022-12-01T16:44:30.607Z,9.00
2022-12-01T16:46:57.518Z,13.00
2022-12-01T16:49:24.472Z,9.67
2022-12-01T16:51:56.360Z,12.00
2022-12-01T16:54:23.991Z,7.67
2022-12-01T16:56:51.586Z,2.67
2022-12-01T16:59:18.615Z,9.00
2022-12-01T17:01:45.611Z,8.33
2022-12-01T17:04:12.628Z,7.00
2022-12-01T17:06:39.699Z,6.00
2022-12-01T17:09:06.646Z,9.67
2022-12-01T17:11:33.688Z,10.33
2022-12-01T17:14:00.598Z,10.00
2022-12-01T17:16:27.870Z,16.33
2022-12-01T17:18:54.864Z,16.00
2022-12-01T17:21:21.762Z,14.33
2022-12-01T17:23:48.772Z,12.67
2022-12-01T17:26:18.067Z,12.00
2022-12-01T17:28:45.091Z,12.00
2022-12-01T17:31:12.360Z,9.00
2022-12-01T17:33:39.933Z,8.00
2022-12-01T17:36:10.680Z,10.33
2022-12-01T17:38:39.242Z,10.33
2022-12-01T17:41:11.818Z,8.00
2022-12-01T17:43:40.090Z,8.00
2022-12-01T17:46:08.715Z,8.33
2022-12-01T17:48:53.452Z,8.67
2022-12-01T17:51:20.417Z,11.33
2022-12-01T17:53:47.381Z,17.33
2022-12-01T17:56:16.394Z,15.00
2022-12-01T17:58:43.644Z,13.00
2022-12-01T18:01:16.332Z,11.67
2022-12-01T18:03:44.164Z,12.00
2022-12-01T18:06:11.711Z,12.00
2022-12-01T18:08:39.914Z,9.00
2022-12-01T18:11:10.203Z,8.67
2022-12-01T18:13:38.538Z,8.67
2022-12-01T18:16:10.156Z,6.67
2022-12-01T18:18:38.279Z,11.67
2022-12-01T18:21:10.674Z,9.00
2022-12-01T18:23:38.113Z,11.33
2022-12-01T18:26:16.065Z,11.33
2022-12-01T18:28:44.347Z,11.00
2022-12-01T18:31:14.883Z,12.00
2022-12-01T18:33:44.151Z,11.33
2022-12-01T18:36:20.426Z,9.00
2022-12-01T18:38:47.693Z,8.00
2022-12-01T18:41:15.775Z,12.00
2022-12-01T18:43:43.183Z,11.67
2022-12-01T18:46:11.460Z,12.00
2022-12-01T18:48:38.707Z,9.00
2022-12-01T18:51:07.653Z,8.67
2022-12-01T18:53:35.191Z,7.33
2022-12-01T18:56:04.172Z,9.00
2022-12-01T18:58:32.090Z,9.00
2022-12-01T19:01:00.761Z,9.00
2022-12-01T19:03:32.071Z,12.00
2022-12-01T19:05:59.722Z,9.00
2022-12-01T19:08:27.309Z,10.33
2022-12-01T19:11:02.492Z,13.67
2022-12-01T19:13:31.524Z,12.67
2022-12-01T19:16:00.020Z,11.67
2022-12-01T19:18:29.600Z,11.67
2022-12-01T19:21:01.631Z,9.00
2022-12-01T19:23:30.400Z,8.00
2022-12-01T19:26:00.009Z,6.67
2022-12-01T19:28:30.063Z,6.67
2022-12-01T19:30:59.522Z,5.00
2022-12-01T19:33:30.274Z,8.00
2022-12-01T19:35:59.346Z,6.00
2022-12-01T19:38:28.099Z,11.00
2022-12-01T19:40:57.510Z,10.33
2022-12-01T19:43:26.515Z,11.00
2022-12-01T19:45:55.701Z,6.67
2022-12-01T19:48:24.883Z,8.00
2022-12-01T19:50:53.918Z,6.00
2022-12-01T19:53:22.943Z,8.00
2022-12-01T19:55:51.497Z,12.00
2022-12-01T19:58:20.610Z,9.00
2022-12-01T20:00:49.666Z,8.00
2022-12-01T20:03:18.312Z,10.33
2022-12-01T20:05:48.005Z,8.00
2022-12-01T20:08:16.272Z,9.00
2022-12-01T20:10:50.122Z,12.00
2022-12-01T20:13:18.846Z,12.67
2022-12-01T20:15:47.459Z,9.67
2022-12-01T20:18:16.973Z,9.33
2022-12-01T20:20:46.351Z,13.00
2022-12-01T20:23:15.563Z,16.00
2022-12-01T20:25:44.778Z,12.33
2022-12-01T20:28:13.701Z,17.33
2022-12-01T20:30:43.102Z,15.00
2022-12-01T20:33:11.775Z,12.00
2022-12-01T20:35:40.634Z,8.00
2022-12-01T20:38:09.576Z,11.00
2022-12-01T20:40:47.100Z,9.00
2022-12-01T20:43:16.765Z,12.00
2022-12-01T20:45:46.201Z,9.67
2022-12-01T20:48:15.032Z,11.00
2022-12-01T20:50:45.065Z,11.00
2022-12-01T20:53:14.007Z,11.33
2022-12-01T20:55:43.140Z,11.33
2022-12-01T20:58:15.910Z,8.67
2022-12-01T21:00:46.204Z,8.00
2022-12-01T21:03:14.464Z,6.00
2022-12-01T21:05:43.564Z,8.33
2022-12-01T21:08:14.102Z,8.00
2022-12-01T21:10:45.171Z,8.67
2022-12-01T21:13:44.967Z,5.00
2022-12-01T21:16:28.520Z,7.67
2022-12-01T21:19:06.438Z,8.00
2022-12-01T21:21:39.414Z,9.67
2022-12-01T21:24:06.274Z,9.00
2022-12-01T21:26:33.306Z,8.00
2022-12-01T21:29:01.243Z,6.67
2022-12-01T21:31:28.420Z,8.00
2022-12-01T21:33:56.135Z,6.00
2022-12-01T21:36:28.282Z,8.00
2022-12-01T21:39:03.820Z,8.33
2022-12-01T21:41:31.278Z,6.00
2022-12-01T21:44:08.036Z,8.00
2022-12-01T21:46:35.442Z,6.67
2022-12-01T21:49:02.882Z,6.00
2022-12-01T21:51:31.066Z,7.33
2022-12-01T21:53:58.774Z,5.00
2022-12-01T21:56:28.427Z,11.00
2022-12-01T21:58:59.659Z,9.00
2022-12-01T22:01:29.208Z,10.33
2022-12-01T22:04:02.016Z,11.67
2022-12-01T22:06:38.208Z,11.67
2022-12-01T22:09:33.312Z,11.00
2022-12-01T22:12:13.429Z,9.00
2022-12-01T22:14:40.341Z,8.67
2022-12-01T22:17:07.182Z,8.00
2022-12-01T22:19:38.070Z,5.67
2022-12-01T22:22:11.040Z,6.33
2022-12-01T22:24:42.635Z,8.00
2022-12-01T22:27:19.390Z,8.00
2022-12-01T22:29:49.001Z,8.00
2022-12-01T22:32:15.852Z,9.00
2022-12-01T22:34:49.673Z,10.33
2022-12-01T22:37:31.253Z,8.00
2022-12-01T22:39:58.144Z,9.00
2022-12-01T22:42:33.331Z,11.00
2022-12-01T22:45:14.964Z,7.33
2022-12-01T22:47:41.850Z,6.00
2022-12-01T22:50:26.816Z,5.67
2022-12-01T22:52:58.975Z,6.33
2022-12-01T22:55:25.905Z,9.00
2022-12-01T22:57:53.054Z,7.00
2022-12-01T23:00:23.239Z,8.00
2022-12-01T23:02:53.377Z,8.67
2022-12-01T23:05:29.380Z,9.00
2022-12-01T23:07:57.713Z,9.00
2022-12-01T23:10:30.481Z,8.00
2022-12-01T23:13:09.058Z,11.67
2022-12-01T23:15:39.605Z,12.00
2022-12-01T23:18:18.811Z,11.00
2022-12-01T23:20:54.638Z,11.33
2022-12-01T23:23:27.302Z,9.00
2022-12-01T23:25:54.886Z,4.33
2022-12-01T23:28:22.578Z,6.67
2022-12-01T23:30:53.093Z,5.33
2022-12-01T23:33:22.622Z,6.33
2022-12-01T23:36:15.265Z,6.00
2022-12-01T23:38:48.213Z,8.00
2022-12-01T23:41:36.009Z,1.00
2022-12-01T23:44:14.951Z,8.00
2022-12-01T23:46:42.117Z,8.00
2022-12-01T23:49:16.011Z,8.00
2022-12-01T23:52:02.966Z,9.00
2022-12-01T23:54:33.511Z,6.67
2022-12-01T23:57:10.984Z,6.33
2022-12-01T23:59:38.455Z,9.00
